Time;durP1;ratioP1;P1;durP2;ratioP2;P2;SDS_P1;SDS_P2;PMS_P1;PMS_P2;Temp;Humidity;BMP_temperature;BMP_pressure;BME280_temperature;BME280_humidity;BME280_pressure;Samples;Min_cycle;Max_cycle;Signal;HPM_P1;HPM_P2
2024/04/25 00:00:18;;;;;;;6.20;4.03;;;;;;;3.65;64.40;100933.16;5453237;26;20525;-69
2024/04/25 00:02:51;;;;;;;6.37;3.97;;;;;;;3.64;63.99;100934.00;5452865;26;20931;-70
2024/04/25 00:05:20;;;;;;;5.07;3.90;;;;;;;3.63;63.65;100927.09;5453115;26;20496;-70
2024/04/25 00:07:48;;;;;;;6.87;3.80;;;;;;;3.64;63.66;100932.31;5452536;26;20457;-70
2024/04/25 00:10:17;;;;;;;4.60;3.50;;;;;;;3.64;63.64;100936.59;5448840;26;20564;-69
2024/04/25 00:12:45;;;;;;;5.23;3.40;;;;;;;3.64;63.74;100934.88;5453086;26;20472;-69
2024/04/25 00:15:14;;;;;;;7.70;4.03;;;;;;;3.63;63.73;100927.97;5453002;26;20525;-70
2024/04/25 00:17:42;;;;;;;5.40;3.67;;;;;;;3.65;63.22;100931.44;5450704;26;20452;-69
2024/04/25 00:20:14;;;;;;;5.90;3.70;;;;;;;3.66;63.04;100932.28;5448544;26;20461;-70
2024/04/25 00:22:42;;;;;;;5.80;3.50;;;;;;;3.65;63.57;100931.44;5452901;26;20647;-70
2024/04/25 00:25:11;;;;;;;5.50;3.77;;;;;;;3.66;63.27;100927.13;5452964;26;20509;-70
2024/04/25 00:27:39;;;;;;;6.40;3.80;;;;;;;3.65;62.91;100930.56;5452975;26;20594;-70
2024/04/25 00:30:10;;;;;;;5.77;3.63;;;;;;;3.64;63.16;100927.13;5452770;26;20567;-70
2024/04/25 00:32:38;;;;;;;5.83;3.90;;;;;;;3.65;62.78;100918.50;5448384;26;20506;-71
2024/04/25 00:35:07;;;;;;;5.23;3.80;;;;;;;3.64;63.00;100919.38;5452593;26;20463;-71
2024/04/25 00:37:38;;;;;;;9.70;4.70;;;;;;;3.65;63.42;100922.81;5452684;26;20871;-71
2024/04/25 00:40:08;;;;;;;8.07;4.20;;;;;;;3.63;62.73;100917.59;5450810;26;20521;-72
2024/04/25 00:42:36;;;;;;;6.13;4.07;;;;;;;3.63;63.14;100916.75;5452502;26;20512;-66
2024/04/25 00:45:05;;;;;;;5.67;3.93;;;;;;;3.60;62.89;100907.25;5452518;26;20530;-66
2024/04/25 00:47:34;;;;;;;7.53;3.87;;;;;;;3.62;62.92;100915.88;5452193;26;20536;-66
2024/04/25 00:50:04;;;;;;;7.63;4.23;;;;;;;3.61;62.53;100911.56;5452420;26;20453;-66
2024/04/25 00:52:33;;;;;;;8.13;4.70;;;;;;;3.61;63.05;100914.16;5452289;26;20513;-66
2024/04/25 00:55:06;;;;;;;6.40;3.73;;;;;;;3.59;62.94;100908.09;5448343;26;20468;-66
2024/04/25 00:57:36;;;;;;;6.23;4.67;;;;;;;3.60;62.80;100893.44;5451774;26;20469;-66
2024/04/25 01:00:05;;;;;;;6.50;3.87;;;;;;;3.59;62.67;100902.94;5452225;26;20452;-66
2024/04/25 01:02:32;;;;;;;6.90;4.10;;;;;;;3.60;62.83;100902.06;5452122;26;20469;-66
2024/04/25 01:05:03;;;;;;;6.13;3.77;;;;;;;3.60;62.95;100896.88;5452080;26;20457;-67
2024/04/25 01:07:32;;;;;;;6.83;4.30;;;;;;;3.61;63.06;100890.88;5452039;26;20536;-66
2024/04/25 01:10:00;;;;;;;7.03;4.10;;;;;;;3.60;63.02;100885.69;5451988;26;20588;-66
2024/04/25 01:12:33;;;;;;;6.27;4.43;;;;;;;3.60;62.97;100891.72;5452171;26;20463;-66
2024/04/25 01:15:01;;;;;;;8.20;4.07;;;;;;;3.59;62.81;100890.00;5451167;26;20457;-66
2024/04/25 01:17:32;;;;;;;6.03;4.17;;;;;;;3.58;62.81;100883.09;5451962;26;20500;-66
2024/04/25 01:20:00;;;;;;;6.73;4.60;;;;;;;3.60;63.06;100881.38;5448265;26;20529;-66
2024/04/25 01:22:36;;;;;;;4.73;3.70;;;;;;;3.61;63.36;100877.06;5451848;26;20522;-66
2024/04/25 01:25:09;;;;;;;7.63;3.70;;;;;;;3.61;62.71;100883.13;5448449;26;20501;-66
2024/04/25 01:27:39;;;;;;;5.47;3.70;;;;;;;3.61;63.44;100872.78;5451810;26;20942;-66
2024/04/25 01:30:09;;;;;;;5.60;3.60;;;;;;;3.61;63.38;100877.94;5451732;26;20457;-66
2024/04/25 01:32:39;;;;;;;6.17;4.10;;;;;;;3.63;63.12;100872.75;5451622;26;20605;-66
2024/04/25 01:35:10;;;;;;;6.37;3.93;;;;;;;3.62;63.14;100860.69;5446283;26;20540;-66
2024/04/25 01:37:38;;;;;;;6.43;4.73;;;;;;;3.61;63.25;100862.41;5451572;26;20627;-66
2024/04/25 01:40:11;;;;;;;6.17;3.80;;;;;;;3.60;63.50;100859.81;5451570;26;20526;-67
2024/04/25 01:42:40;;;;;;;5.60;3.70;;;;;;;3.61;63.22;100854.66;5449912;26;20528;-69
2024/04/25 01:45:09;;;;;;;6.57;3.90;;;;;;;3.61;63.62;100856.34;5451807;26;20456;-70
2024/04/25 01:47:38;;;;;;;6.53;4.03;;;;;;;3.61;63.01;100857.25;5451382;26;20556;-70
2024/04/25 01:50:07;;;;;;;6.83;3.80;;;;;;;3.60;63.59;100860.66;5445852;26;20515;-70
2024/04/25 01:52:35;;;;;;;4.57;3.47;;;;;;;3.59;63.45;100852.91;5451525;26;20533;-70
2024/04/25 01:55:04;;;;;;;6.47;4.30;;;;;;;3.57;63.55;100850.31;5451418;26;20524;-70
2024/04/25 01:57:35;;;;;;;7.33;3.90;;;;;;;3.57;63.43;100846.84;5446971;26;20456;-71
2024/04/25 02:00:04;;;;;;;7.20;3.67;;;;;;;3.58;63.52;100852.06;5451120;26;20527;-70
2024/04/25 02:02:32;;;;;;;6.17;4.03;;;;;;;3.58;63.94;100843.41;5451226;26;20612;-71
2024/04/25 02:05:01;;;;;;;5.23;3.77;;;;;;;3.58;63.58;100849.47;5451103;26;20536;-70
2024/04/25 02:07:32;;;;;;;5.80;3.50;;;;;;;3.57;63.59;100839.94;5451102;26;20814;-70
2024/04/25 02:10:01;;;;;;;5.10;3.50;;;;;;;3.57;63.90;100844.28;5451137;26;20503;-70
2024/04/25 02:12:30;;;;;;;6.87;4.00;;;;;;;3.56;63.59;100847.72;5445378;26;20580;-71
2024/04/25 02:15:01;;;;;;;6.70;4.90;;;;;;;3.54;63.82;100844.25;5451173;26;20947;-71
2024/04/25 02:17:29;;;;;;;7.87;4.23;;;;;;;3.50;63.90;100839.06;5450114;26;20461;-70
2024/04/25 02:19:58;;;;;;;7.60;5.07;;;;;;;3.45;64.14;100845.91;5451023;26;20461;-70
2024/04/25 02:25:20;;;;;;;6.43;4.10;;;;;;;3.38;64.28;100835.50;5449374;26;21102;-71
2024/04/25 02:27:48;;;;;;;6.97;4.40;;;;;;;3.34;64.55;100832.03;5448394;26;20512;-71
2024/04/25 02:30:19;;;;;;;7.90;4.40;;;;;;;3.31;64.57;100833.72;5444965;26;20977;-71
2024/04/25 02:32:48;;;;;;;7.33;4.37;;;;;;;3.27;64.94;100840.59;5454546;26;20519;-70
2024/04/25 02:35:17;;;;;;;5.57;4.07;;;;;;;3.25;64.98;100832.81;5454471;26;20456;-70
2024/04/25 02:37:45;;;;;;;7.90;4.60;;;;;;;3.25;64.84;100829.38;5454316;26;20584;-70
2024/04/25 02:40:14;;;;;;;6.40;4.17;;;;;;;3.22;65.43;100830.22;5454238;26;20465;-71
2024/04/25 02:42:42;;;;;;;6.53;4.50;;;;;;;3.20;65.34;100824.16;5454381;26;20531;-70
2024/04/25 02:45:09;;;;;;;7.37;4.40;;;;;;;3.18;65.50;100825.84;5454256;26;20578;-71
2024/04/25 02:47:41;;;;;;;8.07;4.47;;;;;;;3.16;65.47;100822.41;5454234;26;20481;-71
2024/04/25 02:50:10;;;;;;;6.43;4.17;;;;;;;3.13;65.44;100819.78;5454232;26;20462;-70
2024/04/25 02:52:39;;;;;;;6.63;4.40;;;;;;;3.12;65.57;100815.47;5449103;26;20465;-66
2024/04/25 02:55:06;;;;;;;7.50;4.57;;;;;;;3.11;65.58;100818.03;5454002;26;20587;-66
2024/04/25 02:57:34;;;;;;;6.77;4.53;;;;;;;3.03;65.77;100810.22;5453653;26;20882;-66
2024/04/25 03:00:00;;;;;;;5.87;3.73;;;;;;;3.07;65.56;100814.59;5453855;26;20523;-66
2024/04/25 03:02:29;;;;;;;6.53;4.00;;;;;;;3.02;66.00;100814.53;5454210;26;20448;-70
2024/04/25 03:04:57;;;;;;;5.23;3.60;;;;;;;3.01;65.91;100804.16;5451633;26;20235;-70
2024/04/25 03:07:26;;;;;;;6.33;4.23;;;;;;;2.99;66.13;100808.47;5453924;26;20455;-70
2024/04/25 03:09:52;;;;;;;5.13;3.80;;;;;;;2.93;65.78;100806.69;5453929;26;20468;-70
2024/04/25 03:12:20;;;;;;;8.73;4.37;;;;;;;2.98;66.28;100807.56;5453843;26;20453;-70
2024/04/25 03:14:46;;;;;;;6.77;3.60;;;;;;;2.97;65.94;100805.84;5453815;26;20222;-70
2024/04/25 03:17:14;;;;;;;5.80;3.93;;;;;;;2.97;65.91;100805.00;5446958;26;20451;-70
2024/04/25 03:19:40;;;;;;;5.23;3.90;;;;;;;2.96;66.36;100806.72;5453990;26;20358;-70
2024/04/25 03:22:12;;;;;;;6.50;4.37;;;;;;;2.97;66.31;100799.81;5453695;26;20463;-69
2024/04/25 03:24:37;;;;;;;6.77;3.87;;;;;;;2.98;66.29;100801.56;5453695;26;20274;-69
2024/04/25 03:27:06;;;;;;;6.73;4.03;;;;;;;2.99;66.10;100803.31;5453690;26;20456;-69
2024/04/25 03:29:32;;;;;;;5.80;3.80;;;;;;;3.01;66.19;100802.47;5449895;26;20339;-69
2024/04/25 03:32:01;;;;;;;6.10;3.93;;;;;;;3.03;66.01;100794.72;5453924;26;20449;-69
2024/04/25 03:34:27;;;;;;;5.07;3.77;;;;;;;3.05;66.13;100799.03;5453456;26;20603;-69
2024/04/25 03:36:56;;;;;;;6.93;3.47;;;;;;;3.09;66.35;100796.47;5453847;26;20566;-69
2024/04/25 03:39:27;;;;;;;6.57;3.77;;;;;;;3.11;65.86;100792.19;5453564;26;20511;-69
2024/04/25 03:41:56;;;;;;;7.00;3.50;;;;;;;3.11;65.76;100798.22;5452717;26;20453;-69
2024/04/25 03:44:25;;;;;;;5.63;3.87;;;;;;;3.11;65.99;100793.06;5453177;26;20515;-69
2024/04/25 03:46:53;;;;;;;5.70;3.67;;;;;;;3.13;65.69;100801.69;5453284;26;20483;-69
2024/04/25 03:49:22;;;;;;;4.70;3.20;;;;;;;3.12;65.88;100796.50;5453492;26;20453;-70
2024/04/25 03:51:50;;;;;;;5.20;3.03;;;;;;;3.12;65.58;100793.91;5453356;26;20538;-69
2024/04/25 03:54:19;;;;;;;5.37;3.73;;;;;;;3.10;66.08;100793.91;5453167;26;20591;-69
2024/04/25 03:56:50;;;;;;;6.20;3.90;;;;;;;3.11;65.89;100798.22;5453200;26;20612;-69
2024/04/25 03:59:41;;;;;;;6.07;4.00;;;;;;;3.11;65.94;100793.06;5574108;25;20667;-71
2024/04/25 04:02:09;;;;;;;5.07;3.53;;;;;;;3.13;65.98;100791.34;5544733;25;20464;-67
2024/04/25 04:04:38;;;;;;;4.13;3.13;;;;;;;3.15;66.07;100788.78;5544547;25;20573;-67
2024/04/25 04:07:06;;;;;;;6.27;3.90;;;;;;;3.13;66.14;100795.66;5544523;25;20457;-67
2024/04/25 04:09:35;;;;;;;6.17;3.93;;;;;;;3.18;66.48;100800.00;5544708;25;20445;-67
2024/04/25 04:12:04;;;;;;;4.67;3.67;;;;;;;3.18;66.44;100789.66;5541431;25;20525;-70
2024/04/25 04:14:33;;;;;;;4.77;3.23;;;;;;;3.20;66.04;100793.13;5544445;25;20504;-66
2024/04/25 04:17:04;;;;;;;7.33;3.93;;;;;;;3.21;66.49;100793.97;5544325;25;20562;-66
2024/04/25 04:19:33;;;;;;;5.97;3.70;;;;;;;3.21;66.42;100787.13;5544379;25;20502;-66
2024/04/25 04:22:01;;;;;;;5.57;3.53;;;;;;;3.23;66.12;100787.13;5544360;25;20460;-70
2024/04/25 04:24:30;;;;;;;5.60;3.80;;;;;;;3.23;66.44;100787.97;5544365;25;20507;-71
2024/04/25 04:26:59;;;;;;;6.47;3.90;;;;;;;3.23;66.40;100790.56;5544395;25;20605;-70
2024/04/25 04:29:29;;;;;;;5.73;3.27;;;;;;;3.21;66.37;100778.47;5544311;25;20516;-70
2024/04/25 04:31:57;;;;;;;4.70;3.23;;;;;;;3.23;66.40;100779.34;5544104;25;20453;-70
2024/04/25 04:34:28;;;;;;;6.70;3.80;;;;;;;3.21;66.34;100787.13;5540723;25;20537;-70
2024/04/25 04:36:57;;;;;;;4.33;3.03;;;;;;;3.20;66.37;100782.78;5543919;25;20981;-70
2024/04/25 04:39:25;;;;;;;4.63;3.70;;;;;;;3.20;66.62;100777.59;5538634;25;20523;-70
2024/04/25 04:41:54;;;;;;;5.53;4.10;;;;;;;3.21;66.82;100771.59;5544204;25;20618;-70
2024/04/25 04:44:22;;;;;;;4.83;3.17;;;;;;;3.22;66.65;100767.28;5544035;25;20510;-71
2024/04/25 04:46:51;;;;;;;5.60;3.23;;;;;;;3.21;66.44;100774.19;5544096;25;20517;-70
2024/04/25 04:49:20;;;;;;;3.97;2.77;;;;;;;3.19;66.64;100773.31;5544060;25;20555;-70
2024/04/25 04:51:51;;;;;;;3.83;2.63;;;;;;;3.23;66.57;100771.59;5543912;25;20529;-71
2024/04/25 04:54:19;;;;;;;3.63;2.67;;;;;;;3.23;66.38;100772.47;5541459;25;20559;-72
2024/04/25 04:56:48;;;;;;;4.73;3.17;;;;;;;3.22;66.74;100768.16;5539697;25;20522;-70
2024/04/25 04:59:17;;;;;;;4.80;2.90;;;;;;;3.23;66.76;100772.47;5543764;25;20481;-70
2024/04/25 05:01:45;;;;;;;4.67;2.63;;;;;;;3.23;66.32;100762.13;5543352;25;20525;-70
2024/04/25 05:04:14;;;;;;;4.80;2.57;;;;;;;3.23;66.86;100761.25;5543679;25;20591;-71
2024/04/25 05:06:43;;;;;;;4.03;2.83;;;;;;;3.24;66.71;100763.88;5543875;25;20452;-70
2024/04/25 05:09:14;;;;;;;4.90;2.87;;;;;;;3.24;66.67;100761.28;5533722;25;20533;-71
2024/04/25 05:11:42;;;;;;;5.27;3.40;;;;;;;3.21;66.89;100756.09;5527583;26;20529;-71
2024/04/25 05:14:11;;;;;;;4.37;2.83;;;;;;;3.22;66.68;100759.53;5527747;26;20465;-70
2024/04/25 05:16:41;;;;;;;4.50;3.23;;;;;;;3.11;66.70;100740.50;5524652;26;20608;-70
2024/04/25 05:19:09;;;;;;;4.17;3.37;;;;;;;3.20;67.13;100750.91;5523430;26;20454;-70
2024/04/25 05:21:38;;;;;;;3.43;3.00;;;;;;;3.20;66.76;100745.72;5527549;26;21136;-70
2024/04/25 05:24:07;;;;;;;4.47;3.40;;;;;;;3.19;67.05;100750.03;5527105;26;20550;-70
2024/04/25 05:26:38;;;;;;;2.97;2.00;;;;;;;3.21;66.79;100758.69;5527370;26;20466;-69
2024/04/25 05:29:07;;;;;;;4.70;3.10;;;;;;;3.20;66.48;100751.75;5527422;26;20450;-70
2024/04/25 05:31:35;;;;;;;4.27;3.03;;;;;;;3.20;67.33;100750.91;5522444;26;20812;-71
2024/04/25 05:34:04;;;;;;;4.87;3.30;;;;;;;3.19;66.98;100752.63;5527361;26;20570;-66
2024/04/25 05:36:33;;;;;;;4.10;3.10;;;;;;;3.18;67.38;100748.28;5527216;26;21033;-68
2024/04/25 05:39:01;;;;;;;5.10;3.20;;;;;;;3.19;67.61;100750.03;5524332;26;20600;-68
2024/04/25 05:41:30;;;;;;;5.50;3.00;;;;;;;3.19;67.27;100750.03;5523099;26;21154;-69
2024/04/25 05:44:01;;;;;;;4.20;2.50;;;;;;;3.20;67.21;100751.75;5527284;26;20602;-69
2024/04/25 05:46:29;;;;;;;3.00;2.67;;;;;;;3.19;67.06;100749.19;5526843;26;21090;-69
2024/04/25 05:48:58;;;;;;;3.37;2.70;;;;;;;3.21;67.77;100748.34;5526985;26;20561;-69
2024/04/25 05:51:26;;;;;;;2.47;2.03;;;;;;;3.20;67.61;100746.59;5527312;26;20465;-69
2024/04/25 05:53:55;;;;;;;3.07;2.30;;;;;;;3.10;67.77;100721.53;5527174;26;20536;-69
2024/04/25 05:56:23;;;;;;;2.37;2.13;;;;;;;3.16;67.31;100738.81;5527118;26;20476;-69
2024/04/25 05:58:56;;;;;;;2.23;1.67;;;;;;;3.18;67.72;100743.13;5523742;25;20597;-69
2024/04/25 06:01:28;;;;;;;2.40;1.60;;;;;;;3.19;67.65;100749.19;5524362;26;20963;-69
2024/04/25 06:03:56;;;;;;;1.67;1.20;;;;;;;3.18;67.87;100737.09;5522945;26;20593;-69
2024/04/25 06:06:25;;;;;;;1.27;1.17;;;;;;;3.17;67.61;100737.94;5527032;26;20579;-68
2024/04/25 06:08:54;;;;;;;2.37;1.30;;;;;;;3.15;68.63;100734.47;5526914;26;21047;-69
2024/04/25 06:11:24;;;;;;;1.53;1.30;;;;;;;3.14;68.01;100738.78;5526714;26;20451;-69
2024/04/25 06:13:53;;;;;;;1.40;1.30;;;;;;;3.15;67.99;100739.66;5526798;26;20453;-69
2024/04/25 06:16:23;;;;;;;1.53;1.40;;;;;;;3.16;68.03;100744.84;5522463;26;20460;-69
2024/04/25 06:18:54;;;;;;;1.77;1.17;;;;;;;3.17;68.16;100741.41;5526813;26;20470;-68
2024/04/25 06:21:22;;;;;;;1.57;1.30;;;;;;;3.17;68.22;100735.38;5525368;26;20464;-69
2024/04/25 06:23:51;;;;;;;1.53;1.30;;;;;;;3.19;68.08;100741.41;5526694;26;20599;-69
2024/04/25 06:26:19;;;;;;;1.20;1.10;;;;;;;3.18;68.00;100737.94;5526608;26;20454;-69
2024/04/25 06:28:48;;;;;;;1.77;1.40;;;;;;;3.18;68.77;100739.66;5526684;26;20581;-69
2024/04/25 06:31:17;;;;;;;1.40;1.30;;;;;;;3.19;68.42;100746.59;5526520;26;20536;-68
2024/04/25 06:33:45;;;;;;;1.10;1.00;;;;;;;3.16;68.40;100734.50;5526501;26;20940;-70
2024/04/25 06:36:16;;;;;;;1.20;1.10;;;;;;;3.21;68.30;100739.69;5526441;26;20455;-70
2024/04/25 06:38:45;;;;;;;1.27;1.13;;;;;;;3.21;68.24;100735.41;5519999;26;20474;-71
2024/04/25 06:41:14;;;;;;;1.67;1.10;;;;;;;3.23;68.47;100732.81;5526359;26;20976;-70
2024/04/25 06:43:42;;;;;;;1.30;1.20;;;;;;;3.21;68.12;100739.69;5526381;26;20506;-69
2024/04/25 06:46:11;;;;;;;1.20;1.10;;;;;;;3.20;68.16;100738.81;5526315;26;20587;-69
2024/04/25 06:48:39;;;;;;;1.07;1.00;;;;;;;3.16;68.43;100731.91;5526300;26;20554;-69
2024/04/25 06:51:08;;;;;;;1.20;1.10;;;;;;;3.16;68.59;100739.69;5526469;26;20508;-69
2024/04/25 06:53:39;;;;;;;1.17;1.00;;;;;;;3.15;68.41;100735.34;5526217;26;20454;-71
2024/04/25 06:56:08;;;;;;;1.20;1.10;;;;;;;3.15;68.67;100734.47;5525509;26;20458;-70
2024/04/25 06:58:37;;;;;;;1.10;1.10;;;;;;;3.15;68.64;100727.59;5525863;25;20534;-70
2024/04/25 07:01:06;;;;;;;1.10;1.00;;;;;;;3.16;68.43;100726.75;5526113;26;20513;-70
2024/04/25 07:03:35;;;;;;;1.13;1.03;;;;;;;3.14;68.67;100725.88;5526032;26;20454;-70
2024/04/25 07:06:03;;;;;;;1.03;0.87;;;;;;;3.19;68.43;100731.06;5526011;26;20818;-70
2024/04/25 07:08:32;;;;;;;1.43;1.30;;;;;;;3.18;68.32;100730.19;5525902;26;20452;-70
2024/04/25 07:11:04;;;;;;;1.43;1.20;;;;;;;3.19;68.98;100726.78;5520811;26;20513;-70
2024/04/25 07:13:32;;;;;;;0.90;0.90;;;;;;;3.19;68.47;100721.59;5525889;26;20554;-70
2024/04/25 07:16:04;;;;;;;1.00;0.90;;;;;;;3.19;68.61;100725.91;5525766;26;20503;-70
2024/04/25 07:18:32;;;;;;;1.33;1.23;;;;;;;3.18;68.56;100727.59;5525969;26;21045;-70
2024/04/25 07:21:01;;;;;;;1.10;1.10;;;;;;;3.19;68.79;100728.50;5523829;26;20457;-70
2024/04/25 07:23:29;;;;;;;1.17;1.07;;;;;;;3.21;69.05;100727.66;5522088;26;20919;-70
2024/04/25 07:25:58;;;;;;;2.27;1.20;;;;;;;3.22;68.94;100719.03;5525734;26;20530;-70
2024/04/25 07:28:30;;;;;;;1.47;1.37;;;;;;;3.24;69.02;100726.78;5525635;26;20598;-70
2024/04/25 07:30:58;;;;;;;1.53;1.10;;;;;;;3.26;68.94;100719.91;5524561;26;20451;-70
2024/04/25 07:33:27;;;;;;;1.60;1.50;;;;;;;3.27;69.38;100719.06;5525383;26;20512;-70
2024/04/25 07:35:55;;;;;;;1.30;1.20;;;;;;;3.28;69.15;100713.03;5525628;26;20461;-70
2024/04/25 07:38:24;;;;;;;1.30;1.20;;;;;;;3.29;69.21;100725.97;5525404;26;20530;-71
2024/04/25 07:40:52;;;;;;;1.63;1.30;;;;;;;3.30;69.44;100716.50;5525446;26;20466;-70
2024/04/25 07:43:21;;;;;;;1.67;1.57;;;;;;;3.32;69.66;100719.09;5525691;26;20588;-70
2024/04/25 07:45:52;;;;;;;1.40;1.30;;;;;;;3.36;69.08;100715.69;5525247;26;20541;-70
2024/04/25 07:48:21;;;;;;;0.63;0.63;;;;;;;3.36;69.08;100715.69;5525167;26;20498;-71
2024/04/25 07:50:49;;;;;;;1.57;1.30;;;;;;;3.37;69.03;100713.09;5525544;26;20595;-70
2024/04/25 07:53:22;;;;;;;1.67;1.37;;;;;;;3.40;69.34;100717.41;5525403;26;20524;-70
2024/04/25 07:55:50;;;;;;;1.40;1.30;;;;;;;3.43;68.95;100714.84;5525178;26;20462;-70
2024/04/25 07:58:19;;;;;;;0.83;0.83;;;;;;;3.43;69.47;100713.09;5524984;26;20519;-70
2024/04/25 08:00:48;;;;;;;1.50;1.40;;;;;;;3.42;69.41;100711.41;5525152;26;20860;-70
2024/04/25 08:03:24;;;;;;;1.50;1.40;;;;;;;3.45;69.19;100711.41;5525219;26;20987;-69
2024/04/25 08:05:52;;;;;;;1.37;1.20;;;;;;;3.40;69.36;100694.13;5524303;26;20514;-68
2024/04/25 08:08:21;;;;;;;1.80;1.40;;;;;;;3.48;69.21;100703.66;5525021;26;20589;-69
2024/04/25 08:10:49;;;;;;;1.33;1.23;;;;;;;3.51;69.48;100708.84;5525058;26;20462;-69
2024/04/25 08:13:18;;;;;;;1.53;1.40;;;;;;;3.52;69.57;100696.78;5524747;26;20596;-69
2024/04/25 08:15:46;;;;;;;1.40;1.30;;;;;;;3.49;68.92;100696.75;5518760;26;20466;-69
2024/04/25 08:18:15;;;;;;;0.60;0.57;;;;;;;3.55;68.92;100704.53;5524928;26;20526;-69
2024/04/25 08:20:46;;;;;;;1.77;1.40;;;;;;;3.56;68.77;100697.69;5524753;26;20582;-69
2024/04/25 08:23:15;;;;;;;1.50;1.33;;;;;;;3.56;68.99;100702.84;5520438;26;20524;-69
2024/04/25 08:25:43;;;;;;;1.33;1.23;;;;;;;3.55;68.64;100696.78;5524536;26;20517;-69
2024/04/25 08:28:12;;;;;;;1.40;1.30;;;;;;;3.56;69.07;100693.38;5524636;26;20474;-68
2024/04/25 08:30:41;;;;;;;1.53;1.43;;;;;;;3.57;69.02;100695.09;5522232;26;20570;-69
2024/04/25 08:33:10;;;;;;;1.63;1.27;;;;;;;3.59;68.96;100687.34;5520469;26;20512;-69
2024/04/25 08:35:39;;;;;;;1.27;1.17;;;;;;;3.58;68.97;100689.06;5524434;26;20538;-69
2024/04/25 08:38:10;;;;;;;1.87;1.20;;;;;;;3.61;69.02;100686.50;5517259;26;20448;-69
2024/04/25 08:40:38;;;;;;;1.47;1.37;;;;;;;3.60;68.80;100684.75;5524258;26;20514;-69
2024/04/25 08:43:07;;;;;;;0.87;0.87;;;;;;;3.66;68.72;100702.88;5524340;26;20576;-68
2024/04/25 08:45:36;;;;;;;1.60;1.40;;;;;;;3.67;68.83;100702.03;5522151;26;20502;-68
2024/04/25 08:48:11;;;;;;;1.63;1.30;;;;;;;3.61;68.56;100691.66;5528067;26;21030;-69
2024/04/25 08:50:40;;;;;;;1.57;1.27;;;;;;;3.65;68.51;100698.56;5527972;26;21041;-69
2024/04/25 08:53:13;;;;;;;1.50;1.40;;;;;;;3.68;68.88;100693.41;5527943;26;20586;-67
2024/04/25 08:55:42;;;;;;;1.30;1.20;;;;;;;3.67;68.80;100691.69;5527371;26;20450;-67
2024/04/25 08:58:11;;;;;;;1.33;1.20;;;;;;;3.70;68.78;100688.25;5527096;25;20462;-67
2024/04/25 09:00:40;;;;;;;1.33;1.20;;;;;;;3.70;68.34;100698.59;5527879;26;20442;-67
2024/04/25 09:03:10;;;;;;;1.63;1.33;;;;;;;3.67;68.80;100694.28;5527632;26;20453;-67
2024/04/25 09:05:39;;;;;;;1.07;1.00;;;;;;;3.72;68.32;100696.88;5522731;26;20461;-67
2024/04/25 09:08:15;;;;;;;1.33;1.23;;;;;;;3.72;68.87;100694.28;5527858;26;20458;-67
2024/04/25 09:10:44;;;;;;;1.27;1.17;;;;;;;3.73;68.99;100694.31;5527146;26;20505;-67
2024/04/25 09:13:13;;;;;;;1.40;1.30;;;;;;;3.72;68.52;100690.00;5527706;26;20462;-69
2024/04/25 09:15:41;;;;;;;1.30;1.20;;;;;;;3.75;68.57;100689.09;5527577;26;20574;-69
2024/04/25 09:18:10;;;;;;;1.33;1.23;;;;;;;3.74;68.47;100687.41;5527631;26;20454;-69
2024/04/25 09:20:38;;;;;;;1.40;1.30;;;;;;;3.72;68.92;100695.16;5522407;26;20522;-69
2024/04/25 09:23:07;;;;;;;1.33;1.20;;;;;;;3.65;69.01;100677.88;5527642;26;20462;-69
2024/04/25 09:25:38;;;;;;;1.50;1.20;;;;;;;3.73;69.08;100686.53;5527441;26;20446;-69
2024/04/25 09:28:08;;;;;;;1.57;1.30;;;;;;;3.72;69.06;100687.41;5527471;26;20456;-69
2024/04/25 09:30:38;;;;;;;1.50;1.40;;;;;;;3.74;68.80;100693.44;5527367;26;20594;-69
2024/04/25 09:33:07;;;;;;;1.50;1.20;;;;;;;3.72;69.05;100682.22;5527282;26;20458;-69
2024/04/25 09:35:43;;;;;;;1.40;1.20;;;;;;;3.78;68.39;100689.16;5527405;26;20454;-69
2024/04/25 09:38:11;;;;;;;1.50;1.30;;;;;;;3.79;68.97;100695.19;5527430;26;20504;-69
2024/04/25 09:40:43;;;;;;;1.70;1.40;;;;;;;3.79;68.91;100692.59;5527194;26;20513;-69
2024/04/25 09:43:12;;;;;;;1.33;1.10;;;;;;;3.81;68.44;100696.94;5527268;26;20308;-69
2024/04/25 09:45:43;;;;;;;1.27;1.17;;;;;;;3.84;68.82;100693.47;5527190;26;20458;-69
2024/04/25 09:48:16;;;;;;;1.33;1.23;;;;;;;3.85;68.30;100692.63;5527192;26;20522;-69
2024/04/25 09:50:49;;;;;;;1.47;1.33;;;;;;;3.87;68.94;100683.16;5525636;26;20507;-69
2024/04/25 09:53:26;;;;;;;1.63;1.30;;;;;;;3.91;68.83;100692.63;5524747;26;21010;-69
2024/04/25 09:55:57;;;;;;;1.13;1.03;;;;;;;3.93;68.25;100693.50;5525668;26;20455;-69
2024/04/25 09:58:35;;;;;;;1.30;1.20;;;;;;;3.94;68.56;100690.06;5526841;26;20861;-69
2024/04/25 10:01:05;;;;;;;2.10;1.40;;;;;;;3.97;68.87;100692.66;5526799;26;20581;-69
2024/04/25 10:03:34;;;;;;;1.40;1.30;;;;;;;3.93;68.62;100680.56;5521675;26;20541;-70
2024/04/25 10:06:03;;;;;;;2.27;1.47;;;;;;;4.03;68.65;100694.38;5526805;26;20499;-70
2024/04/25 10:08:32;;;;;;;1.10;1.00;;;;;;;4.04;68.74;100697.00;5526161;26;20560;-69
2024/04/25 10:11:03;;;;;;;1.00;0.90;;;;;;;4.06;68.36;100694.41;5527015;26;20397;-70
2024/04/25 10:13:32;;;;;;;1.60;1.10;;;;;;;4.07;68.27;100694.41;5526804;26;20552;-70
2024/04/25 10:16:00;;;;;;;1.20;1.03;;;;;;;4.08;68.43;100698.72;5526819;26;20586;-70
2024/04/25 10:18:29;;;;;;;1.37;1.13;;;;;;;4.11;68.70;100696.13;5526610;26;20529;-70
2024/04/25 10:21:02;;;;;;;1.07;1.00;;;;;;;4.13;68.62;100697.00;5527113;26;20515;-70
2024/04/25 10:23:35;;;;;;;1.30;1.20;;;;;;;4.13;68.53;100697.00;5525649;26;20563;-72
2024/04/25 10:26:06;;;;;;;1.10;0.90;;;;;;;4.15;68.48;100700.47;5526520;26;20430;-72
2024/04/25 10:28:35;;;;;;;1.13;1.00;;;;;;;4.15;68.28;100704.78;5526667;26;20526;-71
2024/04/25 10:31:04;;;;;;;1.20;1.10;;;;;;;4.16;68.38;100701.34;5526541;26;20587;-72
2024/04/25 10:33:32;;;;;;;1.13;1.03;;;;;;;4.17;69.00;100705.66;5526367;26;20495;-71
2024/04/25 10:36:08;;;;;;;0.90;0.90;;;;;;;4.12;68.62;100691.81;5526502;26;20530;-72
2024/04/25 10:38:37;;;;;;;1.10;1.00;;;;;;;4.20;69.03;100700.47;5526499;26;20556;-71
2024/04/25 10:41:08;;;;;;;1.07;0.97;;;;;;;4.24;68.95;100703.97;5526427;26;20213;-71
2024/04/25 10:43:47;;;;;;;1.00;1.00;;;;;;;4.25;68.91;100700.50;5525633;26;20755;-72
2024/04/25 10:46:16;;;;;;;1.37;1.13;;;;;;;4.28;68.86;100708.28;5526690;26;20454;-72
2024/04/25 10:48:45;;;;;;;0.80;0.80;;;;;;;4.29;68.85;100700.50;5520217;26;21009;-72
2024/04/25 10:51:16;;;;;;;1.10;1.00;;;;;;;4.32;68.58;100702.22;5526342;26;20801;-72
2024/04/25 10:53:45;;;;;;;1.00;1.00;;;;;;;4.33;68.29;100703.97;5525087;26;20510;-73
2024/04/25 10:56:16;;;;;;;0.70;0.70;;;;;;;4.34;68.56;100708.28;5525687;26;20582;-72
2024/04/25 10:58:51;;;;;;;1.43;1.20;;;;;;;4.33;68.73;100703.97;5519185;26;20596;-72
2024/04/25 11:01:24;;;;;;;1.10;1.00;;;;;;;4.33;68.55;100698.78;5524170;26;20217;-71
2024/04/25 11:04:00;;;;;;;1.07;1.00;;;;;;;4.34;68.43;100698.78;5526252;26;20226;-71
2024/04/25 11:06:33;;;;;;;0.90;0.90;;;;;;;4.36;68.46;100696.19;5526202;26;20450;-71
2024/04/25 11:09:03;;;;;;;0.70;0.70;;;;;;;4.35;68.40;100702.22;5525512;26;20454;-71
2024/04/25 11:11:35;;;;;;;1.10;1.00;;;;;;;4.35;68.00;100697.94;5526014;26;20507;-72
2024/04/25 11:14:05;;;;;;;1.27;1.17;;;;;;;4.34;68.53;100696.19;5526327;26;20214;-72
2024/04/25 11:16:39;;;;;;;1.13;1.00;;;;;;;4.38;68.33;100697.09;5524470;26;20217;-72
2024/04/25 11:19:08;;;;;;;1.23;1.13;;;;;;;4.39;67.97;100693.63;5523919;26;20975;-71
2024/04/25 11:21:37;;;;;;;1.70;1.40;;;;;;;4.42;68.39;100696.22;5523059;26;20342;-71
2024/04/25 11:24:06;;;;;;;1.30;1.20;;;;;;;4.43;68.15;100692.75;5525716;26;20256;-72
2024/04/25 11:26:37;;;;;;;1.40;1.30;;;;;;;4.41;68.67;100685.00;5520431;26;20283;-72
2024/04/25 11:29:06;;;;;;;1.37;0.87;;;;;;;4.44;68.56;100691.91;5525861;26;20592;-71
2024/04/25 11:31:36;;;;;;;1.33;1.00;;;;;;;4.37;68.45;100687.56;5525556;26;20470;-71
2024/04/25 11:34:06;;;;;;;1.00;0.90;;;;;;;4.45;67.90;100691.03;5525729;26;20729;-70
2024/04/25 11:36:35;;;;;;;1.87;1.47;;;;;;;4.45;67.91;100693.63;5525633;26;20525;-70
2024/04/25 11:39:04;;;;;;;1.30;1.03;;;;;;;4.46;68.51;100695.34;5525592;26;20291;-70
2024/04/25 11:41:33;;;;;;;1.13;1.03;;;;;;;4.48;68.17;100693.63;5525385;26;20214;-69
2024/04/25 11:44:06;;;;;;;1.17;1.07;;;;;;;4.47;68.62;100699.66;5525697;26;20276;-70
2024/04/25 11:46:34;;;;;;;1.23;1.13;;;;;;;4.51;68.70;100695.34;5519159;26;20217;-70